ADDS METAR Data INFO
IDs: Format: Raw Decoded Include TAF

Data at: 0219 UTC 18 Jan 2018

KACJ 180155Z AUTO 32006KT 10SM CLR M03/M15 A3043 RMK AO2
KACJ 180135Z AUTO 32007KT 10SM CLR M03/M15 A3043 RMK AO2
KACJ 180115Z AUTO 33010G16KT 10SM CLR M03/M15 A3043 RMK AO2
KACJ 180055Z AUTO 32008KT 10SM CLR M03/M15 A3043 RMK AO2
KACJ 180035Z AUTO 32007KT 290V350 10SM CLR M02/M16 A3043 RMK AO2
KACJ 180015Z AUTO 33008G15KT 10SM CLR M02/M16 A3043 RMK AO2
KACJ 172355Z AUTO 32008G14KT 10SM CLR M02/M16 A3043 RMK AO2
KACJ 172335Z AUTO 31008KT 10SM CLR M02/M17 A3042 RMK AO2
KACJ 172315Z AUTO 32007KT 10SM CLR M02/M17 A3041 RMK AO2
KACJ 172255Z AUTO 34007G14KT 10SM CLR M02/M17 A3042 RMK AO2
KACJ 172235Z AUTO 32010G15KT 10SM CLR M02/M17 A3041 RMK AO2
KACJ 172215Z AUTO 31008G15KT 10SM CLR M01/M17 A3041 RMK AO2
KACJ 172155Z AUTO 33010G14KT 10SM CLR M01/M17 A3040 RMK AO2
KACJ 172135Z AUTO 30013G18KT 10SM CLR M01/M17 A3040 RMK AO2
KACJ 172115Z AUTO 32017G20KT 10SM CLR 00/M17 A3039 RMK AO2
KACJ 172055Z AUTO 31012G21KT 10SM CLR M01/M17 A3038 RMK AO2
KACJ 172035Z AUTO 30012G19KT 10SM CLR 00/M16 A3038 RMK AO2
KACJ 172015Z AUTO 30010G18KT 10SM CLR 00/M16 A3038 RMK AO2
KACJ 171955Z AUTO 29012G20KT 10SM CLR 00/M16 A3038 RMK AO2
KACJ 171935Z AUTO 30014G19KT 10SM CLR 00/M15 A3037 RMK AO2
KACJ 171915Z AUTO 33010G17KT 290V360 10SM CLR 00/M14 A3037 RMK AO2
KACJ 171855Z AUTO 30013G19KT 10SM CLR 00/M16 A3037 RMK AO2
KACJ 171835Z AUTO 30011G19KT 270V330 10SM CLR 00/M15 A3038 RMK AO2
KACJ 171815Z AUTO 31012G18KT 280V340 10SM CLR 00/M14 A3039 RMK AO2
KACJ 171755Z AUTO 32012G17KT 10SM CLR 00/M13 A3040 RMK AO2
KACJ 171735Z AUTO 29013G17KT 10SM CLR M01/M12 A3041 RMK AO2
KACJ 171715Z AUTO 29012KT 10SM CLR M01/M12 A3042 RMK AO2
KACJ 171655Z AUTO 33010G17KT 300V360 10SM CLR M01/M11 A3042 RMK AO2
KACJ 171635Z AUTO 33009G16KT 300V010 10SM CLR M01/M10 A3043 RMK AO2
KACJ 171615Z AUTO 30013KT 10SM CLR M02/M09 A3043 RMK AO2
KACJ 171555Z AUTO 29010G14KT 10SM SCT015 M03/M08 A3043 RMK AO2
KACJ 171535Z AUTO 29011KT 10SM BKN013 M03/M07 A3043 RMK AO2
KACJ 171515Z AUTO 30011G15KT 10SM OVC013 M03/M07 A3043 RMK AO2
KACJ 171455Z AUTO 30007KT 10SM BKN015 BKN120 M03/M08 A3042 RMK AO2
KACJ 171435Z AUTO 31008G16KT 10SM BKN012 OVC048 M03/M07 A3042 RMK AO2
KACJ 171415Z AUTO 31006KT 10SM SCT012 OVC046 M03/M07 A3041 RMK AO2
KACJ 171355Z AUTO 32007KT 5SM -SN BKN010 BKN025 OVC050 M03/M06 A3040 RMK AO2
KACJ 171335Z AUTO 32006KT 1 1/4SM -SN BKN010 BKN023 OVC048 M03/M06 A3040 RMK AO2
KACJ 171315Z AUTO 33008KT 1 1/2SM -SN OVC008 M02/M06 A3040 RMK AO2
KACJ 171255Z AUTO 33006KT 1 1/4SM -SN OVC008 M02/M05 A3039 RMK AO2
KACJ 171235Z AUTO 30007KT 2SM -SN BKN008 OVC034 M02/M05 A3038 RMK AO2
KACJ 171215Z AUTO 33007KT 300V360 3SM -SN SCT010 BKN014 OVC045 M02/M05 A3037 RMK AO2
KACJ 171155Z AUTO 33008KT 4SM -SN BKN009 OVC014 M01/M05 A3037 RMK AO2
KACJ 171135Z AUTO 31007KT 7SM -SN BKN009 BKN013 OVC036 M01/M03 A3037 RMK AO2
KACJ 171115Z AUTO 35008KT 3SM -SN SCT011 OVC036 M01/M04 A3036 RMK AO2
KACJ 171055Z AUTO 34009KT 3SM -SN BKN013 OVC034 M01/M04 A3035 RMK AO2
KACJ 171035Z AUTO 31008KT 10SM OVC013 00/M04 A3036 RMK AO2
KACJ 171015Z AUTO 33008KT 10SM OVC013 00/M04 A3036 RMK AO2
KACJ 170955Z AUTO 34007KT 10SM OVC015 00/M04 A3036 RMK AO2
KACJ 170935Z AUTO 32010KT 10SM OVC015 01/M03 A3036 RMK AO2
KACJ 170915Z AUTO 32007KT 10SM BKN015 OVC070 01/M03 A3035 RMK AO2
KACJ 170855Z AUTO 35007KT 10SM BKN015 BKN055 OVC070 01/M03 A3034 RMK AO2
KACJ 170835Z AUTO 33006KT 10SM SCT013 OVC055 02/M02 A3034 RMK AO2
KACJ 170815Z AUTO 32007KT 10SM BKN013 OVC055 02/M02 A3034 RMK AO2
KACJ 170755Z AUTO 31008KT 10SM BKN013 OVC055 02/M02 A3035 RMK AO2
KACJ 170735Z AUTO 33005KT 10SM BKN013 OVC060 02/M01 A3034 RMK AO2
KACJ 170715Z AUTO 34008KT 10SM SCT013 SCT050 OVC060 02/M01 A3034 RMK AO2
KACJ 170655Z AUTO 32008KT 10SM BKN013 BKN060 OVC065 03/M01 A3035 RMK AO2
KACJ 170635Z AUTO 33005KT 10SM SCT013 SCT041 OVC060 03/M01 A3034 RMK AO2
KACJ 170615Z AUTO 33006KT 10SM BKN011 OVC041 04/00 A3036 RMK AO2
KACJ 170555Z AUTO 31007KT 10SM OVC011 04/00 A3035 RMK AO2
KACJ 170535Z AUTO 34008KT 10SM OVC011 05/01 A3035 RMK AO2
KACJ 170515Z AUTO 32010G14KT 10SM BKN013 OVC018 06/01 A3035 RMK AO2
KACJ 170455Z AUTO 31007G14KT 10SM OVC018 06/01 A3035 RMK AO2
KACJ 170435Z AUTO 33006KT 10SM SCT020 BKN060 OVC065 07/01 A3035 RMK AO2
KACJ 170415Z AUTO 33006KT 10SM OVC060 07/01 A3036 RMK AO2
KACJ 170355Z AUTO 34005KT 10SM OVC060 08/01 A3035 RMK AO2
KACJ 170335Z AUTO 33008KT 10SM SCT047 OVC050 08/01 A3036 RMK AO2
KACJ 170315Z AUTO 32007KT 10SM BKN050 OVC055 08/00 A3036 RMK AO2
KACJ 170255Z AUTO 31006KT 10SM OVC050 08/00 A3036 RMK AO2
KACJ 170235Z AUTO 33006KT 10SM OVC050 08/00 A3035 RMK AO2
KACJ 170215Z AUTO 32007KT 10SM OVC050 09/00 A3035 RMK AO2
KACJ 170155Z AUTO 32004KT 10SM OVC050 10/M01 A3034 RMK AO2
KACJ 170135Z AUTO 31005KT 10SM OVC050 10/M01 A3035 RMK AO2
KACJ 170115Z AUTO 32004KT 10SM BKN048 OVC065 10/00 A3035 RMK AO2
KACJ 170055Z AUTO 33004KT 10SM BKN048 OVC065 11/00 A3034 RMK AO2
KACJ 170035Z AUTO 00000KT 10SM BKN046 OVC065 11/00 A3034 RMK AO2
KACJ 170015Z AUTO 00000KT 10SM BKN046 OVC065 11/00 A3033 RMK AO2
KACJ 162355Z AUTO 30003KT 10SM BKN048 BKN065 BKN110 11/00 A3033 RMK AO2
KACJ 162335Z AUTO 31003KT 10SM BKN048 12/00 A3033 RMK AO2
KACJ 162315Z AUTO 00000KT 10SM BKN050 11/00 A3033 RMK AO2
KACJ 162255Z AUTO 00000KT 10SM OVC050 12/00 A3033 RMK AO2
KACJ 162235Z AUTO 00000KT 10SM OVC050 12/00 A3034 RMK AO2
KACJ 162215Z AUTO 00000KT 10SM SCT050 13/00 A3034 RMK AO2
KACJ 162155Z AUTO 29003KT 10SM CLR 13/M03 A3034 RMK AO2
KACJ 162135Z AUTO 25004KT 10SM SCT060 13/M03 A3034 RMK AO2
KACJ 162115Z AUTO 25004KT 10SM SCT060 13/M03 A3034 RMK AO2
KACJ 162055Z AUTO 27004KT 10SM CLR 14/M03 A3035 RMK AO2
KACJ 162035Z AUTO 24005KT 10SM CLR 14/M03 A3034 RMK AO2
KACJ 162015Z AUTO 25004KT 10SM CLR 14/M03 A3035 RMK AO2
KACJ 161955Z AUTO 27004KT 10SM SCT065 14/M04 A3036 RMK AO2
KACJ 161935Z AUTO 25005KT 10SM SCT050 14/M05 A3036 RMK AO2
KACJ 161915Z AUTO 25005KT 10SM SCT050 14/M05 A3037 RMK AO2
KACJ 161855Z AUTO 28006KT 7SM CLR 13/M05 A3038 RMK AO2
KACJ 161835Z AUTO 25010KT 10SM CLR 13/M06 A3039 RMK AO2
KACJ 161815Z AUTO 24006KT 10SM CLR 13/M06 A3039 RMK AO2
KACJ 161755Z AUTO 17005KT 10SM CLR 12/M05 A3040 RMK AO2
KACJ 161735Z AUTO 19005KT 10SM CLR 12/M05 A3041 RMK AO2
KACJ 161715Z AUTO 21005KT 10SM CLR 11/M05 A3042 RMK AO2
KACJ 161655Z AUTO 18005KT 10SM CLR 11/M05 A3043 RMK AO2
KACJ 161635Z AUTO 17005KT 10SM CLR 10/M05 A3044 RMK AO2
KACJ 161615Z AUTO 17005KT 10SM CLR 09/M04 A3045 RMK AO2
KACJ 161555Z AUTO 20004KT 10SM CLR 08/M04 A3046 RMK AO2
KACJ 161535Z AUTO 19005KT 10SM CLR 07/M03 A3047 RMK AO2
KACJ 161515Z AUTO 18005KT 10SM CLR 06/M05 A3047 RMK AO2
KACJ 161455Z AUTO 17004KT 10SM CLR 06/M03 A3047 RMK AO2
KACJ 161435Z AUTO 17007KT 10SM CLR 05/M03 A3046 RMK AO2